Time;durP1;ratioP1;P1;durP2;ratioP2;P2;SDS_P1;SDS_P2;PMS_P1;PMS_P2;Temp;Humidity;BMP_temperature;BMP_pressure;BME280_temperature;BME280_humidity;BME280_pressure;Samples;Min_cycle;Max_cycle;Signal;HPM_P1;HPM_P2
2023/08/03 00:01:08;;;;;;;5.70;5.07;;;;;;;-143.84;65.22;45081.44;4990858;28;21030;-59
2023/08/03 00:03:35;;;;;;;7.13;5.10;;;;;;;-143.84;65.13;45068.13;4990652;28;20932;-58
2023/08/03 00:06:02;;;;;;;5.00;4.60;;;;;;;-143.84;65.82;45075.72;4990747;28;21199;-59
2023/08/03 00:08:30;;;;;;;7.53;4.97;;;;;;;-143.84;65.70;45056.69;4990749;28;20455;-59
2023/08/03 00:11:00;;;;;;;11.17;5.80;;;;;;;-143.84;66.44;45073.81;4990785;28;20444;-58
2023/08/03 00:13:27;;;;;;;7.07;6.37;;;;;;;-143.84;68.10;45081.44;4990667;28;20456;-59
2023/08/03 00:15:54;;;;;;;15.77;7.30;;;;;;;-143.84;69.49;45081.44;4990703;28;20440;-59
2023/08/03 00:18:21;;;;;;;8.07;6.77;;;;;;;-143.84;70.02;45070.00;4990661;28;20498;-59
2023/08/03 00:20:50;;;;;;;17.07;7.50;;;;;;;-143.84;70.17;45083.34;4990430;28;20505;-59
2023/08/03 00:23:17;;;;;;;9.47;5.87;;;;;;;-143.84;69.63;45054.78;4990573;28;20538;-59
2023/08/03 00:25:45;;;;;;;7.23;6.60;;;;;;;-143.84;68.83;45071.91;4990423;28;20610;-59
2023/08/03 00:28:12;;;;;;;7.83;6.10;;;;;;;-143.84;68.03;45068.13;4990416;28;20452;-59
2023/08/03 00:30:40;;;;;;;9.63;6.10;;;;;;;-143.84;67.47;45052.88;4990297;28;20444;-59
2023/08/03 00:33:07;;;;;;;7.70;6.30;;;;;;;-143.84;67.75;45075.72;4990609;28;20461;-59
2023/08/03 00:35:34;;;;;;;8.33;5.63;;;;;;;-143.84;67.25;45039.53;4990001;28;20455;-59
2023/08/03 00:38:01;;;;;;;10.00;6.07;;;;;;;-143.84;67.81;45054.78;4990323;28;20452;-59
2023/08/03 00:40:28;;;;;;;10.00;6.47;;;;;;;-143.84;67.36;45068.13;4990294;28;20801;-59
2023/08/03 00:42:57;;;;;;;10.73;6.30;;;;;;;-143.84;66.87;45045.25;4990396;28;20447;-59
2023/08/03 00:45:24;;;;;;;7.00;6.20;;;;;;;-143.84;66.57;45081.44;4989989;28;20488;-59
2023/08/03 00:47:51;;;;;;;7.53;5.23;;;;;;;-143.84;66.81;45079.53;4990133;28;20432;-59
2023/08/03 00:50:19;;;;;;;8.03;5.13;;;;;;;-143.84;65.90;45047.16;4990360;28;20451;-59
2023/08/03 00:52:46;;;;;;;5.67;5.13;;;;;;;-143.84;66.50;45058.59;4989981;28;20455;-59
2023/08/03 00:55:13;;;;;;;6.73;6.03;;;;;;;-143.84;66.26;45056.69;4990012;28;20474;-59
2023/08/03 00:57:40;;;;;;;12.43;5.40;;;;;;;-143.84;64.86;45087.16;4990000;28;20481;-59
2023/08/03 01:00:10;;;;;;;8.80;5.00;;;;;;;-143.84;62.65;45037.66;4990256;28;20505;-59
2023/08/03 01:02:36;;;;;;;6.80;5.30;;;;;;;-143.84;61.22;45068.13;4990167;28;20507;-59
2023/08/03 01:05:03;;;;;;;7.10;4.90;;;;;;;-143.84;60.65;45041.44;4990115;28;20494;-59
2023/08/03 01:07:30;;;;;;;6.77;5.10;;;;;;;-143.84;60.21;45066.22;4989494;28;20494;-59
2023/08/03 01:09:57;;;;;;;13.90;4.97;;;;;;;-143.84;59.39;45075.72;4990333;28;20514;-59
2023/08/03 01:12:24;;;;;;;6.53;5.07;;;;;;;-143.84;60.35;45049.06;4989813;28;20440;-59
2023/08/03 01:14:51;;;;;;;7.37;4.67;;;;;;;-143.84;59.87;45073.81;4990194;28;20444;-59
2023/08/03 01:17:21;;;;;;;11.80;5.53;;;;;;;-143.84;59.69;45052.88;4990361;28;20564;-59
2023/08/03 01:19:48;;;;;;;6.80;4.90;;;;;;;-143.84;59.65;45066.22;4990205;28;20452;-59
2023/08/03 01:22:15;;;;;;;15.73;5.23;;;;;;;-143.84;59.89;45066.22;4990119;28;20457;-59
2023/08/03 01:24:44;;;;;;;6.20;5.10;;;;;;;-143.84;59.33;45068.13;4990250;28;20538;-59
2023/08/03 01:27:11;;;;;;;6.77;4.40;;;;;;;-143.84;59.53;45070.00;4990189;28;20456;-58
2023/08/03 01:29:38;;;;;;;16.73;6.67;;;;;;;-143.84;60.25;45043.34;4990039;28;20443;-58
2023/08/03 01:32:06;;;;;;;10.40;5.50;;;;;;;-143.84;60.13;45054.78;4990048;28;20440;-58
2023/08/03 01:34:33;;;;;;;7.50;5.07;;;;;;;-143.84;59.81;45062.41;4989992;28;20849;-59
2023/08/03 01:37:00;;;;;;;6.03;5.50;;;;;;;-143.84;60.67;45090.97;4990161;28;20678;-58
2023/08/03 01:39:27;;;;;;;10.77;5.50;;;;;;;-143.84;61.01;45075.72;4990079;28;20452;-59
2023/08/03 01:41:56;;;;;;;16.00;5.77;;;;;;;-143.84;61.08;45077.63;4989868;28;20444;-59
2023/08/03 01:44:28;;;;;;;13.43;7.13;;;;;;;-143.84;61.72;45079.53;4989689;28;20506;-59
2023/08/03 01:46:56;;;;;;;10.73;5.37;;;;;;;-143.84;61.41;45064.31;4989509;28;20810;-58
2023/08/03 01:49:24;;;;;;;9.23;5.10;;;;;;;-143.84;62.04;45049.06;4993311;28;20452;-58
2023/08/03 01:51:52;;;;;;;18.90;6.10;;;;;;;-143.84;61.38;45045.25;4993260;28;20800;-59
2023/08/03 01:54:19;;;;;;;6.47;5.23;;;;;;;-143.84;60.82;45041.44;4993532;28;20841;-58
2023/08/03 01:56:46;;;;;;;5.20;4.70;;;;;;;-143.84;60.01;45100.47;4993523;28;20975;-59
2023/08/03 01:59:15;;;;;;;5.37;4.97;;;;;;;-143.84;59.30;45062.41;4992977;28;20527;-59
2023/08/03 02:01:42;;;;;;;8.07;4.57;;;;;;;-143.84;59.53;45081.44;4993383;28;20451;-59
2023/08/03 02:04:09;;;;;;;6.20;4.50;;;;;;;-143.84;59.79;45070.00;4993270;28;20498;-59
2023/08/03 02:06:37;;;;;;;5.90;5.40;;;;;;;-143.84;60.19;45081.44;4992834;28;20576;-59
2023/08/03 02:09:05;;;;;;;5.83;5.33;;;;;;;-143.84;60.74;45083.34;4993061;28;20561;-59
2023/08/03 02:11:32;;;;;;;5.50;4.70;;;;;;;-143.84;60.46;45049.06;4993187;28;20454;-59
2023/08/03 02:13:59;;;;;;;4.57;4.17;;;;;;;-143.84;59.74;45050.97;4993229;28;20513;-59
2023/08/03 02:16:27;;;;;;;7.30;5.10;;;;;;;-143.84;59.97;45079.53;4992962;28;20506;-58
2023/08/03 02:18:55;;;;;;;5.40;4.90;;;;;;;-143.84;59.84;45064.31;4992781;28;20448;-59
2023/08/03 02:21:22;;;;;;;7.13;5.10;;;;;;;-143.84;61.53;45073.81;4993038;28;20451;-59
2023/08/03 02:23:49;;;;;;;7.30;5.13;;;;;;;-143.84;61.30;45077.63;4992992;28;20450;-59
2023/08/03 02:26:16;;;;;;;5.97;4.77;;;;;;;-143.84;61.72;45079.53;4993005;28;20558;-59
2023/08/03 02:28:43;;;;;;;5.80;5.27;;;;;;;-143.84;61.72;45081.44;4992643;28;20447;-58
2023/08/03 02:31:10;;;;;;;5.90;5.30;;;;;;;-143.84;61.60;45090.97;4992617;28;20443;-59
2023/08/03 02:33:38;;;;;;;5.60;5.10;;;;;;;-143.84;62.94;45049.06;4992606;28;20454;-59
2023/08/03 02:36:06;;;;;;;5.43;4.80;;;;;;;-143.84;63.21;45052.88;4992532;28;20534;-59
2023/08/03 02:38:33;;;;;;;8.60;4.97;;;;;;;-143.84;62.33;45070.00;4992889;28;20458;-59
2023/08/03 02:41:00;;;;;;;5.27;4.87;;;;;;;-143.84;61.91;45070.00;4992444;28;20482;-59
2023/08/03 02:43:27;;;;;;;5.63;4.60;;;;;;;-143.84;60.84;45064.31;4992613;28;20513;-59
2023/08/03 02:45:54;;;;;;;9.23;4.27;;;;;;;-143.84;59.00;45054.78;4992307;28;20492;-59
2023/08/03 02:48:22;;;;;;;9.37;4.80;;;;;;;-143.84;58.94;45071.91;4992331;28;20495;-58
2023/08/03 02:50:50;;;;;;;11.70;5.70;;;;;;;-143.84;58.48;45077.63;4992627;28;21197;-59
2023/08/03 02:53:17;;;;;;;4.43;4.03;;;;;;;-143.84;58.34;45050.97;4992199;28;20459;-58
2023/08/03 02:55:44;;;;;;;5.27;4.87;;;;;;;-143.84;56.87;45064.31;4992411;28;20475;-58
2023/08/03 02:58:11;;;;;;;5.07;4.57;;;;;;;-143.84;55.88;45079.53;4991937;28;20448;-58
2023/08/03 03:00:39;;;;;;;5.47;4.97;;;;;;;-143.84;55.62;45050.97;4991973;28;20493;-58
2023/08/03 03:03:07;;;;;;;5.50;5.10;;;;;;;-143.84;55.38;45070.00;4992153;28;20448;-59
2023/08/03 03:05:34;;;;;;;4.97;4.57;;;;;;;-143.84;54.97;45049.06;4991239;28;20503;-58
2023/08/03 03:08:02;;;;;;;15.53;4.93;;;;;;;-143.84;55.29;45056.69;4991917;28;20452;-59
2023/08/03 03:10:29;;;;;;;5.30;4.80;;;;;;;-143.84;54.54;45071.91;4991789;28;20448;-59
2023/08/03 03:12:57;;;;;;;9.00;5.73;;;;;;;-143.84;54.40;45062.41;4991920;28;20511;-59
2023/08/03 03:15:24;;;;;;;7.07;4.70;;;;;;;-143.84;54.06;45045.25;4991485;28;20496;-59
2023/08/03 03:17:51;;;;;;;6.23;4.80;;;;;;;-143.84;53.95;45056.69;4991686;28;20459;-59
2023/08/03 03:20:18;;;;;;;6.40;4.80;;;;;;;-143.84;54.51;45060.50;4991531;28;20506;-59
2023/08/03 03:22:45;;;;;;;5.30;4.90;;;;;;;-143.84;54.80;45087.16;4991781;28;20448;-59
2023/08/03 03:25:14;;;;;;;5.20;4.70;;;;;;;-143.84;54.75;45052.88;4991221;28;20496;-59
2023/08/03 03:27:41;;;;;;;5.03;4.33;;;;;;;-143.84;54.50;45052.88;4991473;28;20452;-58
2023/08/03 03:30:09;;;;;;;4.87;4.27;;;;;;;-143.84;54.75;45066.22;4991868;28;21195;-59
2023/08/03 03:32:36;;;;;;;5.90;4.90;;;;;;;-143.84;54.73;45064.31;4991114;28;20451;-59
2023/08/03 03:35:03;;;;;;;7.20;4.30;;;;;;;-143.84;55.36;45056.69;4991162;28;20452;-59
2023/08/03 03:37:30;;;;;;;4.90;4.50;;;;;;;-143.84;55.49;45041.44;4991552;28;20447;-59
2023/08/03 03:39:57;;;;;;;5.93;4.43;;;;;;;-143.84;54.36;45052.88;4991351;28;20453;-58
2023/08/03 03:42:26;;;;;;;4.57;4.17;;;;;;;-143.84;52.10;45028.13;4991186;28;20500;-59
2023/08/03 03:44:53;;;;;;;8.97;5.00;;;;;;;-143.84;50.24;45033.84;4990883;28;20449;-59
2023/08/03 03:47:20;;;;;;;5.20;4.70;;;;;;;-143.84;47.88;45012.88;4990854;28;20484;-59
2023/08/03 03:49:47;;;;;;;7.57;4.03;;;;;;;-143.84;46.90;45022.41;4991365;28;20495;-59
2023/08/03 03:52:14;;;;;;;5.43;4.90;;;;;;;-143.84;45.27;44972.91;4990952;28;20437;-59
2023/08/03 03:54:41;;;;;;;4.90;4.43;;;;;;;-143.84;43.84;45005.28;4990934;28;20449;-59
2023/08/03 03:57:08;;;;;;;5.33;4.83;;;;;;;-143.84;43.51;45003.38;4990769;28;20507;-59
2023/08/03 03:59:37;;;;;;;9.13;4.50;;;;;;;-143.84;41.57;44940.53;4990850;28;20495;-59
2023/08/03 04:02:04;;;;;;;6.70;4.50;;;;;;;-143.84;40.42;44950.06;4990667;28;20456;-59
2023/08/03 04:04:31;;;;;;;3.97;3.57;;;;;;;-143.84;40.42;44969.09;4990849;28;20931;-59
2023/08/03 04:06:58;;;;;;;6.43;4.10;;;;;;;-143.84;39.18;44948.16;4990157;28;20904;-59
2023/08/03 04:09:25;;;;;;;4.37;3.97;;;;;;;-143.84;38.57;44950.06;4990337;28;20445;-59
2023/08/03 04:11:52;;;;;;;8.63;3.87;;;;;;;-143.84;38.70;44955.75;4990067;28;20449;-59
2023/08/03 04:14:19;;;;;;;6.33;4.50;;;;;;;-143.84;38.38;44931.00;4990575;28;20507;-59
2023/08/03 04:16:48;;;;;;;6.63;3.80;;;;;;;-143.84;38.86;44921.50;4990611;28;20445;-59
2023/08/03 04:19:15;;;;;;;8.43;4.70;;;;;;;-143.84;39.76;44942.44;4990923;28;20437;-59
2023/08/03 04:21:42;;;;;;;7.13;4.80;;;;;;;-143.84;39.04;44915.78;4990755;28;21029;-59
2023/08/03 04:24:09;;;;;;;4.57;3.90;;;;;;;-143.84;39.00;44927.19;4990515;28;20444;-59
2023/08/03 04:26:36;;;;;;;6.20;3.70;;;;;;;-143.84;39.39;44894.84;4990463;28;20484;-59
2023/08/03 04:29:04;;;;;;;4.37;3.77;;;;;;;-143.84;39.32;44896.75;4990556;28;20900;-59
2023/08/03 04:31:31;;;;;;;4.27;3.97;;;;;;;-143.84;39.42;44913.88;4990522;28;20484;-59
2023/08/03 04:33:59;;;;;;;9.40;3.80;;;;;;;-143.84;38.58;44911.97;4990257;28;20441;-59
2023/08/03 04:36:26;;;;;;;14.40;4.63;;;;;;;-143.84;38.30;44910.06;4990226;28;20511;-51
2023/08/03 04:38:53;;;;;;;4.13;3.83;;;;;;;-143.84;37.96;44902.44;4990372;28;20449;-51
2023/08/03 04:41:21;;;;;;;4.93;4.10;;;;;;;-143.84;38.03;44908.16;4989865;28;20437;-50
2023/08/03 04:43:48;;;;;;;8.60;3.97;;;;;;;-143.84;37.81;44877.69;4989801;28;20448;-51
2023/08/03 04:46:15;;;;;;;5.00;3.60;;;;;;;-143.84;38.78;44885.31;4990102;28;20550;-51
2023/08/03 04:48:42;;;;;;;3.87;3.17;;;;;;;-143.84;37.04;44898.66;4990007;28;20441;-50
2023/08/03 04:51:11;;;;;;;9.03;4.17;;;;;;;-143.84;37.05;44891.03;4989920;28;20480;-51
2023/08/03 04:53:38;;;;;;;10.20;3.70;;;;;;;-143.84;36.79;44896.75;4989945;28;20515;-51
2023/08/03 04:56:05;;;;;;;5.17;4.20;;;;;;;-143.84;37.04;44879.59;4989804;28;20448;-51
2023/08/03 04:58:32;;;;;;;6.33;4.47;;;;;;;-143.84;36.63;44891.03;4989936;28;20976;-50
2023/08/03 05:00:59;;;;;;;4.57;4.27;;;;;;;-143.84;36.76;44862.47;4989718;28;20476;-50
2023/08/03 05:03:27;;;;;;;5.33;4.23;;;;;;;-143.84;36.91;44885.31;4989878;28;20437;-51
2023/08/03 05:05:54;;;;;;;9.13;4.50;;;;;;;-143.84;37.30;44887.22;4989523;28;20567;-51
2023/08/03 05:08:24;;;;;;;11.23;4.57;;;;;;;-143.84;36.64;44862.47;4989997;28;21410;-51
2023/08/03 05:10:51;;;;;;;9.10;4.43;;;;;;;-143.84;36.26;44900.53;4989652;28;20568;-51
2023/08/03 05:13:18;;;;;;;9.10;4.13;;;;;;;-143.84;36.41;44913.88;4989675;28;20441;-50
2023/08/03 05:15:46;;;;;;;14.27;4.37;;;;;;;-143.84;35.16;44877.69;4989987;28;20561;-51
2023/08/03 05:18:13;;;;;;;6.87;4.03;;;;;;;-143.84;36.13;44877.69;4989594;28;20504;-50
2023/08/03 05:20:40;;;;;;;10.60;4.13;;;;;;;-143.84;36.10;44868.19;4989715;28;20453;-51
2023/08/03 05:23:11;;;;;;;6.83;4.27;;;;;;;-143.84;34.68;44837.72;4993447;28;20444;-50
2023/08/03 05:25:40;;;;;;;4.63;3.80;;;;;;;-143.84;34.45;44883.41;4993527;28;20451;-49
2023/08/03 05:28:07;;;;;;;5.73;3.83;;;;;;;-143.84;34.31;44856.75;4993615;28;20473;-51
2023/08/03 05:30:35;;;;;;;9.60;3.67;;;;;;;-143.84;34.82;44877.69;4993427;28;20445;-50
2023/08/03 05:33:02;;;;;;;9.17;4.30;;;;;;;-143.84;33.70;44828.19;4993477;28;20453;-50
2023/08/03 05:35:29;;;;;;;9.93;4.00;;;;;;;-143.84;35.37;44854.84;4993320;28;20464;-50
2023/08/03 05:37:56;;;;;;;17.30;4.23;;;;;;;-143.84;34.71;44849.13;4993509;28;20441;-50
2023/08/03 05:40:24;;;;;;;10.33;4.00;;;;;;;-143.84;34.17;44824.38;4993436;28;20524;-50
2023/08/03 05:42:52;;;;;;;5.10;3.97;;;;;;;-143.84;33.83;44866.28;4993129;28;20441;-51
2023/08/03 05:45:35;;;;;;;10.67;4.30;;;;;;;-143.84;33.51;44849.13;4993099;28;20503;-49
2023/08/03 05:48:04;;;;;;;4.47;4.17;;;;;;;-143.84;34.05;44830.09;4993198;28;20449;-51
2023/08/03 05:50:33;;;;;;;11.37;4.53;;;;;;;-143.84;34.71;44856.75;4993462;28;20503;-50
2023/08/03 05:53:00;;;;;;;18.43;4.40;;;;;;;-143.84;33.63;44866.28;4993088;28;20813;-51
2023/08/03 05:55:27;;;;;;;19.20;4.70;;;;;;;-143.84;34.01;44835.81;4992944;28;20432;-50
2023/08/03 05:57:55;;;;;;;12.10;4.47;;;;;;;-143.84;34.09;44832.00;4992644;28;20449;-51
2023/08/03 06:00:22;;;;;;;11.77;4.10;;;;;;;-143.84;33.21;44837.72;4993302;28;20454;-51
2023/08/03 06:02:50;;;;;;;9.00;4.73;;;;;;;-143.84;35.80;44824.38;4992773;28;20955;-51
2023/08/03 06:05:42;;;;;;;8.67;4.10;;;;;;;-143.84;33.61;44839.63;4992658;28;20441;-50
2023/08/03 06:08:16;;;;;;;4.23;3.67;;;;;;;-143.84;33.48;44832.00;4992668;28;20977;-50
2023/08/03 06:10:43;;;;;;;15.27;4.40;;;;;;;-143.84;33.13;44835.81;4992478;28;20437;-51
2023/08/03 06:13:15;;;;;;;17.10;4.27;;;;;;;-143.84;33.72;44793.91;4992626;28;20873;-50
2023/08/03 06:15:43;;;;;;;7.30;4.63;;;;;;;-143.84;33.71;44805.34;4992969;28;20445;-51
2023/08/03 06:18:12;;;;;;;5.90;3.97;;;;;;;-143.84;33.85;44851.03;4992559;28;20441;-51
2023/08/03 06:20:42;;;;;;;13.80;4.80;;;;;;;-143.84;33.80;44830.09;4992538;28;20448;-51
2023/08/03 06:23:16;;;;;;;14.73;4.83;;;;;;;-143.84;33.35;44824.38;4992641;28;20801;-50
2023/08/03 06:25:44;;;;;;;5.00;4.50;;;;;;;-143.84;32.71;44835.81;4992226;28;20449;-51
2023/08/03 06:28:15;;;;;;;9.80;4.20;;;;;;;-143.84;33.23;44824.38;4992077;28;20489;-51
2023/08/03 06:30:43;;;;;;;8.77;5.10;;;;;;;-143.84;34.86;44818.66;4992131;28;20488;-50
2023/08/03 06:33:13;;;;;;;9.70;4.63;;;;;;;-143.84;33.09;44822.47;4991697;28;20453;-51
2023/08/03 06:35:41;;;;;;;6.20;4.70;;;;;;;-143.84;33.63;44801.53;4992341;28;20511;-50
2023/08/03 06:38:12;;;;;;;8.67;4.17;;;;;;;-143.84;32.63;44776.78;4992103;28;20460;-51
2023/08/03 06:40:40;;;;;;;7.27;4.00;;;;;;;-143.84;34.32;44812.97;4992265;28;20454;-51
2023/08/03 06:43:07;;;;;;;11.37;4.80;;;;;;;-143.84;33.09;44797.72;4992146;28;20476;-51
2023/08/03 06:45:36;;;;;;;5.67;5.17;;;;;;;-143.84;32.79;44793.91;4992052;28;20441;-51
2023/08/03 06:48:04;;;;;;;6.70;4.57;;;;;;;-143.84;32.08;44812.97;4991988;28;20492;-51
2023/08/03 06:50:32;;;;;;;13.57;4.57;;;;;;;-143.84;32.12;44774.88;4992226;28;20453;-51
2023/08/03 06:52:59;;;;;;;4.23;3.83;;;;;;;-143.84;32.94;44784.41;4992115;28;20448;-51
2023/08/03 06:55:27;;;;;;;5.30;3.87;;;;;;;-143.84;31.93;44774.88;4991975;28;20527;-51
2023/08/03 06:57:54;;;;;;;6.43;4.33;;;;;;;-143.84;32.21;44799.63;4992323;28;20462;-51
2023/08/03 07:00:21;;;;;;;5.30;4.23;;;;;;;-143.84;31.66;44778.69;4992005;28;20441;-51
2023/08/03 07:02:50;;;;;;;4.90;4.37;;;;;;;-143.84;32.10;44805.34;4992113;28;20453;-50
2023/08/03 07:05:17;;;;;;;10.30;4.50;;;;;;;-143.84;32.11;44793.91;4991715;28;20465;-50
2023/08/03 07:07:45;;;;;;;7.80;4.43;;;;;;;-143.84;33.04;44797.72;4991741;28;20489;-51
2023/08/03 07:10:12;;;;;;;12.73;3.87;;;;;;;-143.84;32.19;44814.88;4991446;28;20496;-52
2023/08/03 07:12:39;;;;;;;6.43;4.60;;;;;;;-143.84;32.49;44801.53;4991569;28;20488;-51
2023/08/03 07:15:07;;;;;;;10.40;4.40;;;;;;;-143.84;32.23;44811.06;4991712;28;20449;-50
2023/08/03 07:17:34;;;;;;;8.63;4.00;;;;;;;-143.84;31.97;44782.50;4991492;28;20456;-51
2023/08/03 07:20:03;;;;;;;8.40;4.60;;;;;;;-143.84;33.56;44793.91;4991365;28;20438;-51
2023/08/03 07:22:30;;;;;;;10.43;4.30;;;;;;;-143.84;31.69;44793.91;4991509;28;20437;-51
2023/08/03 07:24:58;;;;;;;4.90;4.20;;;;;;;-143.84;31.70;44822.47;4991041;28;20448;-51
2023/08/03 07:27:25;;;;;;;7.70;3.93;;;;;;;-143.84;32.08;44790.13;4991100;28;20851;-51
2023/08/03 07:29:52;;;;;;;4.63;4.23;;;;;;;-143.84;32.63;44812.97;4991561;28;20449;-51
2023/08/03 07:32:19;;;;;;;5.50;4.10;;;;;;;-143.84;32.29;44790.13;4990900;28;20437;-51
2023/08/03 07:34:46;;;;;;;4.30;4.00;;;;;;;-143.84;31.86;44809.16;4990995;28;20898;-51
2023/08/03 07:37:14;;;;;;;4.30;3.60;;;;;;;-143.84;32.37;44793.91;4990881;28;20511;-50
2023/08/03 07:39:41;;;;;;;5.20;4.03;;;;;;;-143.84;31.88;44824.38;4990761;28;20457;-51
2023/08/03 07:42:09;;;;;;;7.23;4.50;;;;;;;-143.84;31.95;44832.00;4991039;28;20778;-50
2023/08/03 07:44:36;;;;;;;8.23;4.07;;;;;;;-143.84;32.22;44833.91;4990433;28;20437;-51
2023/08/03 07:47:03;;;;;;;5.90;4.00;;;;;;;-143.84;32.38;44849.13;4990585;28;21096;-50
2023/08/03 07:49:30;;;;;;;5.90;4.37;;;;;;;-143.84;32.93;44839.63;4991181;28;20445;-51
2023/08/03 07:51:57;;;;;;;8.70;4.50;;;;;;;-143.84;32.96;44811.06;4990633;28;20785;-51
2023/08/03 07:54:26;;;;;;;7.43;4.37;;;;;;;-143.84;32.51;44811.06;4990657;28;20452;-51
2023/08/03 07:56:53;;;;;;;8.60;3.73;;;;;;;-143.84;32.54;44843.44;4991205;28;20528;-51
2023/08/03 07:59:20;;;;;;;5.77;4.07;;;;;;;-143.84;31.89;44811.06;4990642;28;20476;-50
2023/08/03 08:01:47;;;;;;;8.60;4.20;;;;;;;-143.84;31.48;44809.16;4990760;28;20503;-51
2023/08/03 08:04:14;;;;;;;4.27;3.93;;;;;;;-143.84;31.84;44824.38;4990708;28;20441;-51
2023/08/03 08:06:52;;;;;;;5.33;4.30;;;;;;;-143.84;32.77;44765.34;5127470;27;20540;-52
2023/08/03 08:09:19;;;;;;;7.63;3.93;;;;;;;-143.84;30.46;44811.06;5127192;28;20461;-52
2023/08/03 08:11:46;;;;;;;5.43;3.23;;;;;;;-143.84;31.46;44793.91;5127493;28;20780;-51
2023/08/03 08:14:13;;;;;;;7.80;4.27;;;;;;;-143.84;31.19;44833.91;5127349;28;20430;-51
2023/08/03 08:16:40;;;;;;;5.70;3.93;;;;;;;-143.84;31.67;44833.91;5127158;28;20438;-51
2023/08/03 08:19:07;;;;;;;4.07;3.70;;;;;;;-143.84;31.10;44820.56;5127185;28;20932;-51
2023/08/03 08:21:34;;;;;;;13.03;4.17;;;;;;;-143.84;32.90;44807.25;5126995;28;20438;-51
2023/08/03 08:24:03;;;;;;;15.07;5.10;;;;;;;-143.84;32.52;44816.78;5127053;28;20840;-51
2023/08/03 08:26:31;;;;;;;17.33;5.50;;;;;;;-143.84;34.58;44832.00;5126759;28;20504;-51
2023/08/03 08:28:58;;;;;;;13.90;5.00;;;;;;;-143.84;34.60;44870.09;5126855;28;20484;-51
2023/08/03 08:31:26;;;;;;;9.03;4.77;;;;;;;-143.84;34.61;44841.53;5126974;28;20441;-51
2023/08/03 08:33:53;;;;;;;4.67;4.17;;;;;;;-143.84;33.79;44803.44;5126625;28;20858;-51
2023/08/03 08:36:20;;;;;;;4.87;4.33;;;;;;;-143.84;33.99;44799.63;5126642;28;20488;-52
2023/08/03 08:38:47;;;;;;;5.60;4.50;;;;;;;-143.84;33.14;44828.19;5126785;28;20434;-51
2023/08/03 08:41:15;;;;;;;6.63;4.90;;;;;;;-143.84;33.25;44809.16;5126429;28;20434;-51
2023/08/03 08:43:42;;;;;;;7.60;4.77;;;;;;;-143.84;33.33;44799.63;5126638;28;20439;-52
2023/08/03 08:46:09;;;;;;;6.17;5.00;;;;;;;-143.84;33.52;44797.72;5126459;28;20537;-51
2023/08/03 08:48:37;;;;;;;10.07;4.07;;;;;;;-143.84;33.25;44830.09;5126168;28;20495;-52
2023/08/03 08:51:05;;;;;;;7.10;5.20;;;;;;;-143.84;32.95;44803.44;5126065;28;20446;-52
2023/08/03 08:53:32;;;;;;;5.47;4.43;;;;;;;-143.84;32.80;44782.50;5126246;28;20510;-52
2023/08/03 08:56:00;;;;;;;6.73;4.57;;;;;;;-143.84;33.34;44786.31;5126399;28;20476;-51
2023/08/03 08:58:28;;;;;;;9.10;3.90;;;;;;;-143.84;33.20;44797.72;5126445;28;20442;-52
2023/08/03 09:01:04;;;;;;;9.70;4.83;;;;;;;-143.84;31.98;44799.63;5126374;28;20988;-51
2023/08/03 09:03:46;;;;;;;10.80;4.57;;;;;;;-143.84;32.21;44797.72;5126100;27;20946;-51
2023/08/03 09:06:13;;;;;;;4.70;3.77;;;;;;;-143.84;32.57;44797.72;5125686;28;20487;-52
2023/08/03 09:08:53;;;;;;;9.87;4.70;;;;;;;-143.84;32.12;44772.97;5126256;28;20860;-52
2023/08/03 09:11:36;;;;;;;12.53;4.27;;;;;;;-143.84;33.78;44772.97;5125775;28;20447;-51
2023/08/03 09:14:06;;;;;;;8.43;4.07;;;;;;;-143.84;32.80;44767.25;5126488;28;20439;-52
2023/08/03 09:16:34;;;;;;;8.90;4.57;;;;;;;-143.84;32.40;44782.50;5121372;28;20534;-51
2023/08/03 09:19:01;;;;;;;4.43;3.83;;;;;;;-143.84;33.63;44818.66;5112450;28;20921;-51
2023/08/03 09:21:28;;;;;;;7.13;4.83;;;;;;;-143.84;33.53;44793.91;5111981;28;20485;-51
2023/08/03 09:23:56;;;;;;;8.57;4.67;;;;;;;-143.84;32.96;44786.31;5111500;28;20435;-52
2023/08/03 09:26:24;;;;;;;5.10;3.87;;;;;;;-143.84;32.97;44799.63;5111472;28;20518;-51
2023/08/03 09:28:51;;;;;;;5.27;4.23;;;;;;;-143.84;33.83;44763.47;5111673;28;20435;-52
2023/08/03 09:31:25;;;;;;;5.97;4.63;;;;;;;-143.84;34.80;44792.00;5111854;28;20980;-51
2023/08/03 09:34:01;;;;;;;4.93;4.50;;;;;;;-143.84;34.34;44799.63;5111846;28;20454;-51
2023/08/03 09:36:29;;;;;;;5.47;4.90;;;;;;;-143.84;36.13;44835.81;5111570;28;20442;-51
2023/08/03 09:39:11;;;;;;;9.17;4.20;;;;;;;-143.84;35.93;44832.00;5111179;28;20466;-51
2023/08/03 09:41:38;;;;;;;10.30;4.33;;;;;;;-143.84;36.36;44818.66;5111444;28;20461;-51
2023/08/03 09:44:07;;;;;;;4.70;4.30;;;;;;;-143.84;37.55;44851.03;5111482;28;20504;-52
2023/08/03 09:46:36;;;;;;;6.90;4.40;;;;;;;-143.84;37.75;44822.47;5111536;28;20567;-51
2023/08/03 09:49:03;;;;;;;5.47;5.07;;;;;;;-143.84;38.46;44866.28;5111493;28;20455;-51
2023/08/03 09:51:32;;;;;;;5.63;4.97;;;;;;;-143.84;37.38;44849.13;5111953;28;21218;-52
2023/08/03 09:54:09;;;;;;;5.07;4.73;;;;;;;-143.84;38.50;44868.19;5111833;28;20440;-50
2023/08/03 09:56:38;;;;;;;4.93;4.53;;;;;;;-143.84;38.04;44843.44;5111365;28;20439;-50
2023/08/03 09:59:12;;;;;;;5.57;5.07;;;;;;;-143.84;38.28;44856.75;5111630;28;20450;-52
2023/08/03 10:01:43;;;;;;;8.90;4.90;;;;;;;-143.84;39.99;44852.94;5111599;28;20488;-51
2023/08/03 10:04:15;;;;;;;7.70;4.87;;;;;;;-143.84;40.34;44858.66;5111413;28;20431;-51
2023/08/03 10:06:47;;;;;;;5.27;4.87;;;;;;;-143.84;40.48;44862.47;5110879;28;20834;-51
2023/08/03 10:09:21;;;;;;;5.20;4.50;;;;;;;-143.84;40.30;44854.84;5111470;28;20806;-51
2023/08/03 10:11:52;;;;;;;8.90;4.47;;;;;;;-143.84;39.00;44837.72;5111503;28;20439;-51
2023/08/03 10:14:25;;;;;;;5.40;4.90;;;;;;;-143.84;39.22;44877.69;5111065;28;20447;-50
2023/08/03 10:16:55;;;;;;;7.90;4.80;;;;;;;-143.84;39.42;44868.19;5111088;28;20504;-51
2023/08/03 10:19:23;;;;;;;5.03;4.60;;;;;;;-143.84;39.79;44852.94;5110844;28;20505;-50
2023/08/03 10:21:51;;;;;;;7.97;5.00;;;;;;;-143.84;38.90;44875.78;5110982;28;20542;-51
2023/08/03 10:24:19;;;;;;;10.00;4.53;;;;;;;-143.84;39.60;44851.03;5111047;28;20439;-50
2023/08/03 10:26:54;;;;;;;5.40;4.90;;;;;;;-143.84;39.21;44864.38;5110716;28;20501;-51
2023/08/03 10:29:50;;;;;;;5.20;4.70;;;;;;;-143.84;39.59;44864.38;5109969;28;20461;-51
2023/08/03 10:32:22;;;;;;;11.80;4.80;;;;;;;-143.84;40.02;44870.09;5110762;28;20850;-50
2023/08/03 10:34:51;;;;;;;14.47;5.50;;;;;;;-143.84;40.04;44870.09;5110807;28;20928;-51
2023/08/03 10:37:18;;;;;;;10.67;5.60;;;;;;;-143.84;40.36;44849.13;5110563;28;20455;-50
2023/08/03 10:39:50;;;;;;;5.20;4.80;;;;;;;-143.84;41.37;44883.41;5110878;28;20439;-51
2023/08/03 10:42:23;;;;;;;7.30;5.10;;;;;;;-143.84;42.20;44866.28;5110796;28;20450;-51
2023/08/03 10:44:50;;;;;;;7.17;4.70;;;;;;;-143.84;42.56;44864.38;5110619;28;20496;-55
2023/08/03 10:47:28;;;;;;;5.43;5.03;;;;;;;-143.84;42.65;44885.31;5110193;28;21025;-55
2023/08/03 10:49:57;;;;;;;9.00;5.00;;;;;;;-143.84;41.91;44883.41;5110623;28;20503;-56
2023/08/03 10:52:29;;;;;;;4.70;4.40;;;;;;;-143.84;43.16;44877.69;5110826;28;20435;-56
2023/08/03 10:54:58;;;;;;;6.63;4.60;;;;;;;-143.84;41.40;44866.28;5110261;28;20467;-56
2023/08/03 10:57:28;;;;;;;6.50;4.90;;;;;;;-143.84;40.80;44873.88;5110355;28;20471;-56
2023/08/03 10:59:56;;;;;;;5.23;4.83;;;;;;;-143.84;40.16;44875.78;5110240;28;20435;-56
2023/08/03 11:02:28;;;;;;;14.30;4.90;;;;;;;-143.84;40.73;44862.47;5110219;28;20516;-56
2023/08/03 11:04:56;;;;;;;12.93;5.33;;;;;;;-143.84;42.12;44879.59;5109829;28;20487;-56
2023/08/03 11:07:26;;;;;;;6.67;5.40;;;;;;;-143.84;41.28;44866.28;5109520;28;20483;-56
2023/08/03 11:09:54;;;;;;;10.60;5.20;;;;;;;-143.84;40.88;44892.94;5109866;28;20450;-56
2023/08/03 11:12:23;;;;;;;6.43;4.87;;;;;;;-143.84;41.49;44891.03;5109952;28;21170;-56
2023/08/03 11:14:51;;;;;;;8.37;5.00;;;;;;;-143.84;42.03;44896.75;5109836;28;20436;-56
2023/08/03 11:17:22;;;;;;;6.57;5.10;;;;;;;-143.84;41.49;44871.97;5110102;28;20531;-56
2023/08/03 11:19:51;;;;;;;8.23;5.30;;;;;;;-143.84;44.54;44877.69;5110017;28;20444;-56